Sopu — OH3700 — position and weather

sailwx.info

Track history (hours):
 
Tides and Currents Weather Stations Pressure Air Temp Water Temp Dewpoint Dewpoint Depression Visibility Wind Speed Wind Dir Waves Ship Positions

Sopu

Last reported at 2018-Jan-07 18:30 UTC. Time now 2018-Feb-20 19:41 UTC.
Position N 37°57' W 000°41'.
Warning: this ship's position is 44 days out of date.

Length 12 m.

Type: Sailing vessel. MMSI: 230061700.

Date/timePositionNaut miles runAvg speedWind from/ knotsBaromVisibWave heightAir tempDewpointWater temp
2018-Jan-07 18:30N 37°57' W 000°41'3 6.4
2018-Jan-07 18:00N 37°53' W 000°42'3 5.9
2018-Jan-07 17:30N 37°51' W 000°42'3 6.1
2018-Jan-07 17:00N 37°47' W 000°42'3 6.4
2018-Jan-07 16:30N 37°44' W 000°42'3 6.7
2018-Jan-07 16:00N 37°41' W 000°41'  
2018-Jan-05 09:58N 37°40' W 000°41'3 5.5
2018-Jan-05 09:30N 37°43' W 000°42'3 6.2
2018-Jan-05 09:00N 37°46' W 000°42'4 6.5
2018-Jan-05 08:27N 37°49' W 000°42'3 7.1
2018-Jan-05 08:00N 37°52' W 000°41'  
Track history (hours):
 
Tides and Currents Weather Stations Pressure Air Temp Water Temp Dewpoint Dewpoint Depression Visibility Wind Speed Wind Dir Waves Ship Positions

Sopu

Last reported at 2018-Jan-07 18:30 UTC. Time now 2018-Feb-20 19:41 UTC.
Position N 37°57' W 000°41'.
Warning: this ship's position is 44 days out of date.

Length 12 m.

Type: Sailing vessel. MMSI: 230061700.

Date/timePositionNaut miles runAvg speedWind from/ knotsBaromVisibWave heightAir tempDewpointWater temp
2018-Jan-07 18:30N 37°57' W 000°41'3 6.4
2018-Jan-07 18:00N 37°53' W 000°42'3 5.9
2018-Jan-07 17:30N 37°51' W 000°42'3 6.1
2018-Jan-07 17:00N 37°47' W 000°42'3 6.4
2018-Jan-07 16:30N 37°44' W 000°42'3 6.7
2018-Jan-07 16:00N 37°41' W 000°41'  
2018-Jan-05 09:58N 37°40' W 000°41'3 5.5
2018-Jan-05 09:30N 37°43' W 000°42'3 6.2
2018-Jan-05 09:00N 37°46' W 000°42'4 6.5
2018-Jan-05 08:27N 37°49' W 000°42'3 7.1
2018-Jan-05 08:00N 37°52' W 000°41'  

Dump ship's entire track history